sensor_id;sensor_type;location;lat;lon;timestamp;P1;durP1;ratioP1;P2;durP2;ratioP2
54665;SDS011;40566;50.006;36.180;2023-12-22T00:04:44;24.15;;;6.88;;
54665;SDS011;40566;50.006;36.180;2023-12-22T00:10:03;18.67;;;6.22;;
54665;SDS011;40566;50.006;36.180;2023-12-22T00:15:22;15.73;;;7.07;;
54665;SDS011;40566;50.006;36.180;2023-12-22T00:20:41;48.15;;;8.13;;
54665;SDS011;40566;50.006;36.180;2023-12-22T00:26:00;38.67;;;9.25;;
54665;SDS011;40566;50.006;36.180;2023-12-22T00:31:19;52.45;;;8.73;;
54665;SDS011;40566;50.006;36.180;2023-12-22T00:36:38;52.05;;;7.03;;
54665;SDS011;40566;50.006;36.180;2023-12-22T00:41:57;36.60;;;5.80;;
54665;SDS011;40566;50.006;36.180;2023-12-22T00:47:16;29.10;;;5.72;;
54665;SDS011;40566;50.006;36.180;2023-12-22T00:52:35;61.30;;;6.63;;
54665;SDS011;40566;50.006;36.180;2023-12-22T00:57:54;34.28;;;6.28;;
54665;SDS011;40566;50.006;36.180;2023-12-22T01:03:13;18.77;;;5.43;;
54665;SDS011;40566;50.006;36.180;2023-12-22T01:08:32;60.70;;;7.60;;
54665;SDS011;40566;50.006;36.180;2023-12-22T01:13:51;57.10;;;6.78;;
54665;SDS011;40566;50.006;36.180;2023-12-22T01:19:10;17.73;;;5.57;;
54665;SDS011;40566;50.006;36.180;2023-12-22T01:24:29;23.88;;;8.02;;
54665;SDS011;40566;50.006;36.180;2023-12-22T01:29:48;51.67;;;6.93;;
54665;SDS011;40566;50.006;36.180;2023-12-22T01:35:07;17.25;;;5.15;;
54665;SDS011;40566;50.006;36.180;2023-12-22T01:40:28;76.47;;;6.70;;
54665;SDS011;40566;50.006;36.180;2023-12-22T01:45:52;30.38;;;5.93;;
54665;SDS011;40566;50.006;36.180;2023-12-22T01:51:14;43.28;;;6.53;;
54665;SDS011;40566;50.006;36.180;2023-12-22T01:56:34;23.52;;;5.47;;
54665;SDS011;40566;50.006;36.180;2023-12-22T02:01:53;37.58;;;4.82;;
54665;SDS011;40566;50.006;36.180;2023-12-22T02:07:12;10.52;;;3.92;;
54665;SDS011;40566;50.006;36.180;2023-12-22T02:12:31;30.60;;;6.20;;
54665;SDS011;40566;50.006;36.180;2023-12-22T02:23:49;95.60;;;8.27;;
54665;SDS011;40566;50.006;36.180;2023-12-22T02:29:08;26.65;;;6.07;;
54665;SDS011;40566;50.006;36.180;2023-12-22T02:34:33;15.90;;;4.85;;
54665;SDS011;40566;50.006;36.180;2023-12-22T02:39:55;34.38;;;6.38;;
54665;SDS011;40566;50.006;36.180;2023-12-22T02:45:17;21.20;;;5.60;;
54665;SDS011;40566;50.006;36.180;2023-12-22T02:50:36;29.40;;;5.60;;
54665;SDS011;40566;50.006;36.180;2023-12-22T02:55:55;24.88;;;4.68;;
54665;SDS011;40566;50.006;36.180;2023-12-22T03:01:14;29.02;;;4.90;;
54665;SDS011;40566;50.006;36.180;2023-12-22T03:06:33;23.52;;;5.55;;
54665;SDS011;40566;50.006;36.180;2023-12-22T03:11:53;38.28;;;4.93;;
54665;SDS011;40566;50.006;36.180;2023-12-22T03:17:13;8.00;;;3.30;;
54665;SDS011;40566;50.006;36.180;2023-12-22T03:22:33;13.65;;;3.70;;
54665;SDS011;40566;50.006;36.180;2023-12-22T03:27:52;34.35;;;5.75;;
54665;SDS011;40566;50.006;36.180;2023-12-22T03:33:12;35.60;;;4.93;;
54665;SDS011;40566;50.006;36.180;2023-12-22T03:38:31;12.00;;;4.72;;
54665;SDS011;40566;50.006;36.180;2023-12-22T03:43:50;47.22;;;5.93;;
54665;SDS011;40566;50.006;36.180;2023-12-22T03:49:09;28.85;;;8.18;;
54665;SDS011;40566;50.006;36.180;2023-12-22T03:54:28;29.17;;;9.05;;
54665;SDS011;40566;50.006;36.180;2023-12-22T03:59:47;13.10;;;5.68;;
54665;SDS011;40566;50.006;36.180;2023-12-22T04:05:05;24.50;;;7.43;;
54665;SDS011;40566;50.006;36.180;2023-12-22T04:10:25;24.50;;;7.68;;
54665;SDS011;40566;50.006;36.180;2023-12-22T04:15:43;19.67;;;7.00;;
54665;SDS011;40566;50.006;36.180;2023-12-22T04:21:02;18.00;;;7.57;;
54665;SDS011;40566;50.006;36.180;2023-12-22T04:26:22;21.63;;;8.00;;
54665;SDS011;40566;50.006;36.180;2023-12-22T04:31:41;24.10;;;10.25;;
54665;SDS011;40566;50.006;36.180;2023-12-22T04:37:00;21.85;;;7.70;;
54665;SDS011;40566;50.006;36.180;2023-12-22T04:42:18;49.97;;;10.93;;
54665;SDS011;40566;50.006;36.180;2023-12-22T04:47:38;39.60;;;7.07;;
54665;SDS011;40566;50.006;36.180;2023-12-22T04:52:57;40.95;;;8.30;;
54665;SDS011;40566;50.006;36.180;2023-12-22T04:58:16;34.08;;;10.23;;
54665;SDS011;40566;50.006;36.180;2023-12-22T05:03:35;38.22;;;9.93;;
54665;SDS011;40566;50.006;36.180;2023-12-22T05:08:53;65.20;;;11.10;;
54665;SDS011;40566;50.006;36.180;2023-12-22T05:14:12;50.35;;;12.93;;
54665;SDS011;40566;50.006;36.180;2023-12-22T05:19:32;47.05;;;11.63;;
54665;SDS011;40566;50.006;36.180;2023-12-22T05:24:50;56.22;;;13.40;;
54665;SDS011;40566;50.006;36.180;2023-12-22T05:30:10;35.47;;;8.98;;
54665;SDS011;40566;50.006;36.180;2023-12-22T05:35:29;38.67;;;10.35;;
54665;SDS011;40566;50.006;36.180;2023-12-22T05:40:48;43.33;;;12.02;;
54665;SDS011;40566;50.006;36.180;2023-12-22T05:46:08;26.23;;;10.18;;
54665;SDS011;40566;50.006;36.180;2023-12-22T05:51:28;48.63;;;14.15;;
54665;SDS011;40566;50.006;36.180;2023-12-22T05:56:47;50.35;;;13.43;;
54665;SDS011;40566;50.006;36.180;2023-12-22T06:02:07;70.47;;;11.82;;
54665;SDS011;40566;50.006;36.180;2023-12-22T06:07:26;30.85;;;8.60;;
54665;SDS011;40566;50.006;36.180;2023-12-22T06:12:45;26.13;;;7.55;;
54665;SDS011;40566;50.006;36.180;2023-12-22T06:18:04;29.60;;;9.25;;
54665;SDS011;40566;50.006;36.180;2023-12-22T06:23:23;33.40;;;10.13;;
54665;SDS011;40566;50.006;36.180;2023-12-22T06:28:42;37.95;;;9.27;;
54665;SDS011;40566;50.006;36.180;2023-12-22T06:34:01;47.90;;;12.32;;
54665;SDS011;40566;50.006;36.180;2023-12-22T06:39:20;46.05;;;10.38;;
54665;SDS011;40566;50.006;36.180;2023-12-22T06:44:42;49.08;;;9.07;;
54665;SDS011;40566;50.006;36.180;2023-12-22T06:50:05;31.63;;;8.90;;
54665;SDS011;40566;50.006;36.180;2023-12-22T06:55:24;31.63;;;8.23;;
54665;SDS011;40566;50.006;36.180;2023-12-22T07:00:43;25.15;;;7.32;;
54665;SDS011;40566;50.006;36.180;2023-12-22T07:06:02;23.70;;;6.85;;
54665;SDS011;40566;50.006;36.180;2023-12-22T07:11:22;38.72;;;8.98;;
54665;SDS011;40566;50.006;36.180;2023-12-22T07:16:41;28.95;;;8.90;;
54665;SDS011;40566;50.006;36.180;2023-12-22T07:22:03;25.13;;;8.77;;
54665;SDS011;40566;50.006;36.180;2023-12-22T07:27:23;32.58;;;9.52;;
54665;SDS011;40566;50.006;36.180;2023-12-22T07:32:43;33.65;;;10.02;;
54665;SDS011;40566;50.006;36.180;2023-12-22T07:38:03;29.83;;;8.48;;
54665;SDS011;40566;50.006;36.180;2023-12-22T07:43:22;30.05;;;9.52;;
54665;SDS011;40566;50.006;36.180;2023-12-22T07:48:41;28.15;;;9.77;;
54665;SDS011;40566;50.006;36.180;2023-12-22T07:54:00;31.65;;;9.60;;
54665;SDS011;40566;50.006;36.180;2023-12-22T07:59:19;26.92;;;9.63;;
54665;SDS011;40566;50.006;36.180;2023-12-22T08:04:38;29.73;;;11.20;;
54665;SDS011;40566;50.006;36.180;2023-12-22T08:09:57;30.00;;;12.02;;
54665;SDS011;40566;50.006;36.180;2023-12-22T08:15:16;32.33;;;12.60;;
54665;SDS011;40566;50.006;36.180;2023-12-22T08:20:34;38.63;;;13.30;;
54665;SDS011;40566;50.006;36.180;2023-12-22T08:25:54;34.97;;;12.02;;
54665;SDS011;40566;50.006;36.180;2023-12-22T08:31:13;28.52;;;10.77;;
54665;SDS011;40566;50.006;36.180;2023-12-22T08:36:32;44.15;;;21.08;;
54665;SDS011;40566;50.006;36.180;2023-12-22T08:41:51;26.95;;;10.70;;
54665;SDS011;40566;50.006;36.180;2023-12-22T08:47:10;22.80;;;10.20;;
54665;SDS011;40566;50.006;36.180;2023-12-22T08:52:29;28.85;;;11.50;;
54665;SDS011;40566;50.006;36.180;2023-12-22T08:57:48;21.38;;;9.95;;
54665;SDS011;40566;50.006;36.180;2023-12-22T09:03:07;24.38;;;10.90;;
54665;SDS011;40566;50.006;36.180;2023-12-22T09:08:25;29.42;;;10.38;;
54665;SDS011;40566;50.006;36.180;2023-12-22T09:13:45;32.25;;;11.68;;
54665;SDS011;40566;50.006;36.180;2023-12-22T09:19:04;20.40;;;8.38;;
54665;SDS011;40566;50.006;36.180;2023-12-22T09:24:23;21.77;;;8.85;;
54665;SDS011;40566;50.006;36.180;2023-12-22T09:29:42;24.50;;;6.70;;
54665;SDS011;40566;50.006;36.180;2023-12-22T09:35:02;18.55;;;6.45;;
54665;SDS011;40566;50.006;36.180;2023-12-22T09:40:21;19.45;;;7.72;;
54665;SDS011;40566;50.006;36.180;2023-12-22T09:45:41;17.83;;;7.57;;
54665;SDS011;40566;50.006;36.180;2023-12-22T09:51:01;31.95;;;13.85;;
54665;SDS011;40566;50.006;36.180;2023-12-22T09:56:21;17.27;;;7.35;;
54665;SDS011;40566;50.006;36.180;2023-12-22T10:01:43;15.75;;;6.10;;
54665;SDS011;40566;50.006;36.180;2023-12-22T10:07:06;22.25;;;7.18;;
54665;SDS011;40566;50.006;36.180;2023-12-22T10:12:27;26.48;;;13.35;;
54665;SDS011;40566;50.006;36.180;2023-12-22T10:17:48;26.67;;;12.88;;
54665;SDS011;40566;50.006;36.180;2023-12-22T10:23:10;11.57;;;5.32;;
54665;SDS011;40566;50.006;36.180;2023-12-22T10:28:29;24.10;;;8.43;;
54665;SDS011;40566;50.006;36.180;2023-12-22T10:33:48;16.98;;;6.50;;
54665;SDS011;40566;50.006;36.180;2023-12-22T10:39:07;15.90;;;6.47;;
54665;SDS011;40566;50.006;36.180;2023-12-22T10:44:27;20.80;;;7.03;;
54665;SDS011;40566;50.006;36.180;2023-12-22T10:49:47;17.42;;;6.57;;
54665;SDS011;40566;50.006;36.180;2023-12-22T10:54:48;26.27;;;6.07;;
54665;SDS011;40566;50.006;36.180;2023-12-22T11:00:08;18.70;;;7.07;;
54665;SDS011;40566;50.006;36.180;2023-12-22T11:05:12;19.27;;;7.65;;
54665;SDS011;40566;50.006;36.180;2023-12-22T11:10:35;19.10;;;6.80;;
54665;SDS011;40566;50.006;36.180;2023-12-22T11:16:01;24.48;;;7.65;;
54665;SDS011;40566;50.006;36.180;2023-12-22T11:21:02;24.15;;;8.52;;
54665;SDS011;40566;50.006;36.180;2023-12-22T11:26:24;25.77;;;8.85;;
54665;SDS011;40566;50.006;36.180;2023-12-22T11:31:26;24.00;;;8.15;;
54665;SDS011;40566;50.006;36.180;2023-12-22T11:36:31;19.45;;;7.07;;
54665;SDS011;40566;50.006;36.180;2023-12-22T11:41:32;16.77;;;6.60;;
54665;SDS011;40566;50.006;36.180;2023-12-22T11:47:04;27.65;;;8.82;;
54665;SDS011;40566;50.006;36.180;2023-12-22T11:52:10;28.83;;;8.30;;
54665;SDS011;40566;50.006;36.180;2023-12-22T11:57:37;20.95;;;6.15;;
54665;SDS011;40566;50.006;36.180;2023-12-22T12:02:39;14.55;;;5.97;;
54665;SDS011;40566;50.006;36.180;2023-12-22T12:07:41;27.80;;;8.88;;
54665;SDS011;40566;50.006;36.180;2023-12-22T12:13:08;27.85;;;9.00;;
54665;SDS011;40566;50.006;36.180;2023-12-22T12:18:34;10.73;;;4.82;;
54665;SDS011;40566;50.006;36.180;2023-12-22T12:23:53;17.95;;;5.80;;
54665;SDS011;40566;50.006;36.180;2023-12-22T12:28:54;15.63;;;4.97;;
54665;SDS011;40566;50.006;36.180;2023-12-22T12:34:15;17.83;;;6.40;;
54665;SDS011;40566;50.006;36.180;2023-12-22T12:39:38;15.90;;;4.75;;
54665;SDS011;40566;50.006;36.180;2023-12-22T12:44:41;11.35;;;4.53;;
54665;SDS011;40566;50.006;36.180;2023-12-22T12:50:01;16.60;;;6.38;;
54665;SDS011;40566;50.006;36.180;2023-12-22T12:55:22;17.38;;;7.60;;
54665;SDS011;40566;50.006;36.180;2023-12-22T13:00:41;13.80;;;5.95;;
54665;SDS011;40566;50.006;36.180;2023-12-22T13:05:42;14.35;;;5.43;;
54665;SDS011;40566;50.006;36.180;2023-12-22T13:11:01;13.38;;;6.05;;
54665;SDS011;40566;50.006;36.180;2023-12-22T13:16:02;16.60;;;7.20;;
54665;SDS011;40566;50.006;36.180;2023-12-22T13:21:04;12.38;;;4.85;;
54665;SDS011;40566;50.006;36.180;2023-12-22T13:26:23;12.48;;;5.38;;
54665;SDS011;40566;50.006;36.180;2023-12-22T13:31:42;14.40;;;5.82;;
54665;SDS011;40566;50.006;36.180;2023-12-22T13:37:03;13.80;;;5.55;;
54665;SDS011;40566;50.006;36.180;2023-12-22T13:42:23;14.60;;;6.57;;
54665;SDS011;40566;50.006;36.180;2023-12-22T13:47:24;9.38;;;4.88;;
54665;SDS011;40566;50.006;36.180;2023-12-22T13:52:25;20.95;;;8.13;;
54665;SDS011;40566;50.006;36.180;2023-12-22T13:57:45;17.23;;;6.50;;
54665;SDS011;40566;50.006;36.180;2023-12-22T14:02:46;9.93;;;5.05;;
54665;SDS011;40566;50.006;36.180;2023-12-22T14:08:09;18.88;;;7.22;;
54665;SDS011;40566;50.006;36.180;2023-12-22T14:13:09;15.35;;;7.03;;
54665;SDS011;40566;50.006;36.180;2023-12-22T14:18:28;17.75;;;7.55;;
54665;SDS011;40566;50.006;36.180;2023-12-22T14:23:47;15.40;;;6.68;;
54665;SDS011;40566;50.006;36.180;2023-12-22T14:29:06;18.75;;;7.45;;
54665;SDS011;40566;50.006;36.180;2023-12-22T14:34:25;18.40;;;7.13;;
54665;SDS011;40566;50.006;36.180;2023-12-22T14:39:45;14.20;;;6.90;;
54665;SDS011;40566;50.006;36.180;2023-12-22T14:45:04;14.55;;;6.63;;
54665;SDS011;40566;50.006;36.180;2023-12-22T14:50:24;19.73;;;7.03;;
54665;SDS011;40566;50.006;36.180;2023-12-22T14:55:24;11.15;;;4.07;;
54665;SDS011;40566;50.006;36.180;2023-12-22T15:00:25;20.92;;;7.20;;
54665;SDS011;40566;50.006;36.180;2023-12-22T15:05:44;13.02;;;4.97;;
54665;SDS011;40566;50.006;36.180;2023-12-22T15:10:44;11.20;;;5.15;;
54665;SDS011;40566;50.006;36.180;2023-12-22T15:16:04;10.68;;;3.30;;
54665;SDS011;40566;50.006;36.180;2023-12-22T15:21:24;13.00;;;4.68;;
54665;SDS011;40566;50.006;36.180;2023-12-22T15:26:43;13.57;;;5.00;;
54665;SDS011;40566;50.006;36.180;2023-12-22T15:32:02;10.48;;;3.53;;
54665;SDS011;40566;50.006;36.180;2023-12-22T15:37:03;15.23;;;6.10;;
54665;SDS011;40566;50.006;36.180;2023-12-22T15:42:21;11.88;;;4.72;;
54665;SDS011;40566;50.006;36.180;2023-12-22T15:47:22;12.50;;;5.75;;
54665;SDS011;40566;50.006;36.180;2023-12-22T15:52:22;11.40;;;4.60;;
54665;SDS011;40566;50.006;36.180;2023-12-22T15:57:41;13.45;;;5.47;;
54665;SDS011;40566;50.006;36.180;2023-12-22T16:03:00;15.95;;;4.97;;
54665;SDS011;40566;50.006;36.180;2023-12-22T16:08:19;11.77;;;4.60;;
54665;SDS011;40566;50.006;36.180;2023-12-22T16:13:39;13.73;;;5.35;;
54665;SDS011;40566;50.006;36.180;2023-12-22T16:18:59;11.38;;;3.95;;
54665;SDS011;40566;50.006;36.180;2023-12-22T16:24:18;9.75;;;3.95;;
54665;SDS011;40566;50.006;36.180;2023-12-22T16:29:19;13.05;;;5.38;;
54665;SDS011;40566;50.006;36.180;2023-12-22T16:34:20;19.23;;;7.20;;
54665;SDS011;40566;50.006;36.180;2023-12-22T16:39:51;12.43;;;4.53;;
54665;SDS011;40566;50.006;36.180;2023-12-22T16:45:11;13.02;;;4.72;;
54665;SDS011;40566;50.006;36.180;2023-12-22T16:50:12;18.67;;;6.32;;
54665;SDS011;40566;50.006;36.180;2023-12-22T16:55:13;15.13;;;5.35;;
54665;SDS011;40566;50.006;36.180;2023-12-22T17:00:36;12.80;;;4.78;;
54665;SDS011;40566;50.006;36.180;2023-12-22T17:05:37;14.60;;;5.82;;
54665;SDS011;40566;50.006;36.180;2023-12-22T17:10:41;20.50;;;7.22;;
54665;SDS011;40566;50.006;36.180;2023-12-22T17:16:02;17.40;;;6.35;;
54665;SDS011;40566;50.006;36.180;2023-12-22T17:21:21;18.58;;;7.03;;
54665;SDS011;40566;50.006;36.180;2023-12-22T17:26:41;17.42;;;5.45;;
54665;SDS011;40566;50.006;36.180;2023-12-22T17:32:00;17.55;;;6.88;;
54665;SDS011;40566;50.006;36.180;2023-12-22T17:37:25;20.42;;;6.40;;
54665;SDS011;40566;50.006;36.180;2023-12-22T17:42:44;16.20;;;6.43;;
54665;SDS011;40566;50.006;36.180;2023-12-22T17:47:44;15.70;;;7.05;;
54665;SDS011;40566;50.006;36.180;2023-12-22T17:53:04;16.95;;;5.63;;
54665;SDS011;40566;50.006;36.180;2023-12-22T17:58:24;14.63;;;5.43;;
54665;SDS011;40566;50.006;36.180;2023-12-22T18:03:44;20.05;;;7.80;;
54665;SDS011;40566;50.006;36.180;2023-12-22T18:09:03;19.08;;;6.78;;
54665;SDS011;40566;50.006;36.180;2023-12-22T18:14:03;14.43;;;5.60;;
54665;SDS011;40566;50.006;36.180;2023-12-22T18:19:22;21.60;;;6.90;;
54665;SDS011;40566;50.006;36.180;2023-12-22T18:24:41;19.02;;;7.65;;
54665;SDS011;40566;50.006;36.180;2023-12-22T18:29:42;17.90;;;8.23;;
54665;SDS011;40566;50.006;36.180;2023-12-22T18:35:01;19.70;;;7.80;;
54665;SDS011;40566;50.006;36.180;2023-12-22T18:40:21;15.38;;;6.47;;
54665;SDS011;40566;50.006;36.180;2023-12-22T18:45:41;21.52;;;7.68;;
54665;SDS011;40566;50.006;36.180;2023-12-22T18:50:42;21.58;;;8.20;;
54665;SDS011;40566;50.006;36.180;2023-12-22T18:56:02;16.92;;;7.30;;
54665;SDS011;40566;50.006;36.180;2023-12-22T19:01:03;23.45;;;9.05;;
54665;SDS011;40566;50.006;36.180;2023-12-22T19:06:22;17.65;;;8.50;;
54665;SDS011;40566;50.006;36.180;2023-12-22T19:11:22;17.67;;;6.90;;
54665;SDS011;40566;50.006;36.180;2023-12-22T19:16:41;18.88;;;6.93;;
54665;SDS011;40566;50.006;36.180;2023-12-22T19:22:00;21.60;;;8.25;;
54665;SDS011;40566;50.006;36.180;2023-12-22T19:27:22;24.55;;;9.55;;
54665;SDS011;40566;50.006;36.180;2023-12-22T19:32:41;26.00;;;8.43;;
54665;SDS011;40566;50.006;36.180;2023-12-22T19:37:44;23.63;;;8.93;;
54665;SDS011;40566;50.006;36.180;2023-12-22T19:43:03;19.85;;;8.73;;
54665;SDS011;40566;50.006;36.180;2023-12-22T19:48:22;22.27;;;9.65;;
54665;SDS011;40566;50.006;36.180;2023-12-22T19:53:41;20.75;;;9.02;;
54665;SDS011;40566;50.006;36.180;2023-12-22T19:59:00;16.45;;;7.75;;
54665;SDS011;40566;50.006;36.180;2023-12-22T20:04:19;21.88;;;9.13;;
54665;SDS011;40566;50.006;36.180;2023-12-22T20:09:21;19.08;;;9.32;;
54665;SDS011;40566;50.006;36.180;2023-12-22T20:14:40;24.42;;;10.23;;
54665;SDS011;40566;50.006;36.180;2023-12-22T20:19:59;26.85;;;10.30;;
54665;SDS011;40566;50.006;36.180;2023-12-22T20:25:18;25.63;;;9.63;;
54665;SDS011;40566;50.006;36.180;2023-12-22T20:30:37;23.70;;;9.63;;
54665;SDS011;40566;50.006;36.180;2023-12-22T20:35:56;18.83;;;7.63;;
54665;SDS011;40566;50.006;36.180;2023-12-22T20:41:15;14.82;;;5.75;;
54665;SDS011;40566;50.006;36.180;2023-12-22T20:46:34;21.25;;;7.43;;
54665;SDS011;40566;50.006;36.180;2023-12-22T20:51:53;14.15;;;5.80;;
54665;SDS011;40566;50.006;36.180;2023-12-22T20:56:56;16.73;;;6.32;;
54665;SDS011;40566;50.006;36.180;2023-12-22T21:01:56;19.25;;;7.60;;
54665;SDS011;40566;50.006;36.180;2023-12-22T21:06:57;20.58;;;8.35;;
54665;SDS011;40566;50.006;36.180;2023-12-22T21:12:16;22.80;;;8.25;;
54665;SDS011;40566;50.006;36.180;2023-12-22T21:17:18;25.02;;;9.43;;
54665;SDS011;40566;50.006;36.180;2023-12-22T21:22:40;27.55;;;10.65;;
54665;SDS011;40566;50.006;36.180;2023-12-22T21:28:00;27.83;;;10.68;;
54665;SDS011;40566;50.006;36.180;2023-12-22T21:33:20;21.52;;;9.27;;
54665;SDS011;40566;50.006;36.180;2023-12-22T21:38:22;20.05;;;8.43;;
54665;SDS011;40566;50.006;36.180;2023-12-22T21:43:23;25.52;;;10.50;;
54665;SDS011;40566;50.006;36.180;2023-12-22T21:48:42;20.65;;;8.35;;
54665;SDS011;40566;50.006;36.180;2023-12-22T21:54:01;21.75;;;8.95;;
54665;SDS011;40566;50.006;36.180;2023-12-22T21:59:20;19.23;;;7.78;;
54665;SDS011;40566;50.006;36.180;2023-12-22T22:04:39;17.05;;;7.03;;
54665;SDS011;40566;50.006;36.180;2023-12-22T22:09:59;15.65;;;5.95;;
54665;SDS011;40566;50.006;36.180;2023-12-22T22:14:59;18.40;;;6.65;;
54665;SDS011;40566;50.006;36.180;2023-12-22T22:20:18;14.70;;;6.65;;
54665;SDS011;40566;50.006;36.180;2023-12-22T22:25:19;13.27;;;5.30;;
54665;SDS011;40566;50.006;36.180;2023-12-22T22:30:39;15.23;;;6.22;;
54665;SDS011;40566;50.006;36.180;2023-12-22T22:35:40;18.77;;;6.80;;
54665;SDS011;40566;50.006;36.180;2023-12-22T22:40:59;17.85;;;6.85;;
54665;SDS011;40566;50.006;36.180;2023-12-22T22:46:18;13.38;;;5.40;;
54665;SDS011;40566;50.006;36.180;2023-12-22T22:51:37;14.50;;;6.82;;
54665;SDS011;40566;50.006;36.180;2023-12-22T22:56:56;12.80;;;5.40;;
54665;SDS011;40566;50.006;36.180;2023-12-22T23:01:56;14.30;;;6.65;;
54665;SDS011;40566;50.006;36.180;2023-12-22T23:06:57;16.30;;;7.20;;
54665;SDS011;40566;50.006;36.180;2023-12-22T23:12:16;20.55;;;7.00;;
54665;SDS011;40566;50.006;36.180;2023-12-22T23:17:17;16.85;;;6.53;;
54665;SDS011;40566;50.006;36.180;2023-12-22T23:22:17;15.40;;;6.72;;
54665;SDS011;40566;50.006;36.180;2023-12-22T23:27:18;15.80;;;6.60;;
54665;SDS011;40566;50.006;36.180;2023-12-22T23:32:37;16.27;;;5.75;;
54665;SDS011;40566;50.006;36.180;2023-12-22T23:37:56;11.65;;;4.28;;
54665;SDS011;40566;50.006;36.180;2023-12-22T23:43:15;10.60;;;4.28;;
54665;SDS011;40566;50.006;36.180;2023-12-22T23:48:15;10.55;;;4.68;;
54665;SDS011;40566;50.006;36.180;2023-12-22T23:53:34;10.45;;;3.90;;
54665;SDS011;40566;50.006;36.180;2023-12-22T23:58:54;12.10;;;5.13;;
